sensor_id;sensor_type;location;lat;lon;timestamp;temperature;humidity
12853;DHT22;6495;51.808;7.478;2022-07-25T00:01:44;24.10;83.10
12853;DHT22;6495;51.808;7.478;2022-07-25T00:04:13;24.00;83.30
12853;DHT22;6495;51.808;7.478;2022-07-25T00:06:42;24.00;83.70
12853;DHT22;6495;51.808;7.478;2022-07-25T00:09:11;24.00;84.10
12853;DHT22;6495;51.808;7.478;2022-07-25T00:11:39;23.90;84.30
12853;DHT22;6495;51.808;7.478;2022-07-25T00:14:07;23.90;84.60
12853;DHT22;6495;51.808;7.478;2022-07-25T00:16:36;23.80;84.70
12853;DHT22;6495;51.808;7.478;2022-07-25T00:19:06;23.80;85.10
12853;DHT22;6495;51.808;7.478;2022-07-25T00:21:34;23.80;85.30
12853;DHT22;6495;51.808;7.478;2022-07-25T00:24:02;23.70;85.50
12853;DHT22;6495;51.808;7.478;2022-07-25T00:26:31;23.70;85.60
12853;DHT22;6495;51.808;7.478;2022-07-25T00:29:05;23.60;85.60
12853;DHT22;6495;51.808;7.478;2022-07-25T00:31:34;23.50;85.70
12853;DHT22;6495;51.808;7.478;2022-07-25T00:34:02;23.50;85.70
12853;DHT22;6495;51.808;7.478;2022-07-25T00:36:32;23.40;85.80
12853;DHT22;6495;51.808;7.478;2022-07-25T00:39:01;23.40;85.80
12853;DHT22;6495;51.808;7.478;2022-07-25T00:41:29;23.40;86.10
12853;DHT22;6495;51.808;7.478;2022-07-25T00:43:57;23.30;86.20
12853;DHT22;6495;51.808;7.478;2022-07-25T00:46:25;23.30;86.20
12853;DHT22;6495;51.808;7.478;2022-07-25T00:48:53;23.30;86.20
12853;DHT22;6495;51.808;7.478;2022-07-25T00:51:22;23.20;86.10
12853;DHT22;6495;51.808;7.478;2022-07-25T00:53:51;23.20;86.00
12853;DHT22;6495;51.808;7.478;2022-07-25T00:56:19;23.20;86.00
12853;DHT22;6495;51.808;7.478;2022-07-25T00:58:47;23.20;86.00
12853;DHT22;6495;51.808;7.478;2022-07-25T01:01:15;23.20;85.90
12853;DHT22;6495;51.808;7.478;2022-07-25T01:03:44;23.10;85.90
12853;DHT22;6495;51.808;7.478;2022-07-25T01:06:13;23.10;85.90
12853;DHT22;6495;51.808;7.478;2022-07-25T01:08:42;23.00;86.20
12853;DHT22;6495;51.808;7.478;2022-07-25T01:11:11;23.00;86.30
12853;DHT22;6495;51.808;7.478;2022-07-25T01:13:40;23.00;86.60
12853;DHT22;6495;51.808;7.478;2022-07-25T01:16:08;22.90;86.70
12853;DHT22;6495;51.808;7.478;2022-07-25T01:18:36;22.90;87.00
12853;DHT22;6495;51.808;7.478;2022-07-25T01:21:06;22.90;87.10
12853;DHT22;6495;51.808;7.478;2022-07-25T01:23:35;22.80;87.10
12853;DHT22;6495;51.808;7.478;2022-07-25T01:26:04;22.80;87.20
12853;DHT22;6495;51.808;7.478;2022-07-25T01:28:32;22.80;87.40
12853;DHT22;6495;51.808;7.478;2022-07-25T01:31:01;22.80;87.70
12853;DHT22;6495;51.808;7.478;2022-07-25T01:33:29;22.80;88.00
12853;DHT22;6495;51.808;7.478;2022-07-25T01:35:57;22.80;88.10
12853;DHT22;6495;51.808;7.478;2022-07-25T01:38:26;22.80;88.10
12853;DHT22;6495;51.808;7.478;2022-07-25T01:40:54;22.80;88.10
12853;DHT22;6495;51.808;7.478;2022-07-25T01:43:23;22.80;88.00
12853;DHT22;6495;51.808;7.478;2022-07-25T01:45:51;22.80;88.00
12853;DHT22;6495;51.808;7.478;2022-07-25T01:48:19;22.80;87.90
12853;DHT22;6495;51.808;7.478;2022-07-25T01:50:47;22.80;87.90
12853;DHT22;6495;51.808;7.478;2022-07-25T01:53:15;22.70;87.80
12853;DHT22;6495;51.808;7.478;2022-07-25T01:55:45;22.70;87.90
12853;DHT22;6495;51.808;7.478;2022-07-25T01:58:14;22.70;87.90
12853;DHT22;6495;51.808;7.478;2022-07-25T02:00:43;22.60;88.10
12853;DHT22;6495;51.808;7.478;2022-07-25T02:03:11;22.60;88.10
12853;DHT22;6495;51.808;7.478;2022-07-25T02:05:59;22.50;88.20
12853;DHT22;6495;51.808;7.478;2022-07-25T02:08:28;22.50;88.50
12853;DHT22;6495;51.808;7.478;2022-07-25T02:10:58;22.40;88.70
12853;DHT22;6495;51.808;7.478;2022-07-25T02:13:27;22.40;88.90
12853;DHT22;6495;51.808;7.478;2022-07-25T02:15:55;22.30;89.10
12853;DHT22;6495;51.808;7.478;2022-07-25T02:18:24;22.30;89.40
12853;DHT22;6495;51.808;7.478;2022-07-25T02:20:52;22.20;89.60
12853;DHT22;6495;51.808;7.478;2022-07-25T02:23:20;22.10;89.80
12853;DHT22;6495;51.808;7.478;2022-07-25T02:25:48;22.20;90.10
12853;DHT22;6495;51.808;7.478;2022-07-25T02:28:17;22.10;90.20
12853;DHT22;6495;51.808;7.478;2022-07-25T02:30:45;22.00;90.20
12853;DHT22;6495;51.808;7.478;2022-07-25T02:33:14;22.00;90.20
12853;DHT22;6495;51.808;7.478;2022-07-25T02:35:42;22.00;90.30
12853;DHT22;6495;51.808;7.478;2022-07-25T02:38:11;22.00;90.40
12853;DHT22;6495;51.808;7.478;2022-07-25T02:40:45;21.90;90.50
12853;DHT22;6495;51.808;7.478;2022-07-25T02:43:15;21.80;90.50
12853;DHT22;6495;51.808;7.478;2022-07-25T02:45:45;21.80;90.50
12853;DHT22;6495;51.808;7.478;2022-07-25T02:48:13;21.80;90.60
12853;DHT22;6495;51.808;7.478;2022-07-25T02:50:42;21.80;90.70
12853;DHT22;6495;51.808;7.478;2022-07-25T02:53:10;21.80;90.80
12853;DHT22;6495;51.808;7.478;2022-07-25T02:55:38;21.80;90.90
12853;DHT22;6495;51.808;7.478;2022-07-25T02:58:06;21.80;90.90
12853;DHT22;6495;51.808;7.478;2022-07-25T03:00:36;21.80;91.00
12853;DHT22;6495;51.808;7.478;2022-07-25T03:03:04;21.80;91.10
12853;DHT22;6495;51.808;7.478;2022-07-25T03:05:32;21.80;91.20
12853;DHT22;6495;51.808;7.478;2022-07-25T03:08:00;21.80;91.30
12853;DHT22;6495;51.808;7.478;2022-07-25T03:10:29;21.70;91.30
12853;DHT22;6495;51.808;7.478;2022-07-25T03:12:57;21.70;91.50
12853;DHT22;6495;51.808;7.478;2022-07-25T03:15:26;21.70;91.60
12853;DHT22;6495;51.808;7.478;2022-07-25T03:17:55;21.60;91.60
12853;DHT22;6495;51.808;7.478;2022-07-25T03:20:23;21.60;91.60
12853;DHT22;6495;51.808;7.478;2022-07-25T03:22:52;21.50;91.60
12853;DHT22;6495;51.808;7.478;2022-07-25T03:25:20;21.50;91.70
12853;DHT22;6495;51.808;7.478;2022-07-25T03:27:49;21.50;91.90
12853;DHT22;6495;51.808;7.478;2022-07-25T03:30:17;21.40;91.90
12853;DHT22;6495;51.808;7.478;2022-07-25T03:32:46;21.40;91.90
12853;DHT22;6495;51.808;7.478;2022-07-25T03:35:15;21.40;92.00
12853;DHT22;6495;51.808;7.478;2022-07-25T03:37:44;21.30;92.00
12853;DHT22;6495;51.808;7.478;2022-07-25T03:40:12;21.30;92.00
12853;DHT22;6495;51.808;7.478;2022-07-25T03:42:42;21.30;92.00
12853;DHT22;6495;51.808;7.478;2022-07-25T03:45:10;21.30;92.10
12853;DHT22;6495;51.808;7.478;2022-07-25T03:47:38;21.20;92.10
12853;DHT22;6495;51.808;7.478;2022-07-25T03:50:07;21.20;92.50
12853;DHT22;6495;51.808;7.478;2022-07-25T03:52:37;21.20;92.20
12853;DHT22;6495;51.808;7.478;2022-07-25T03:55:07;21.20;92.20
12853;DHT22;6495;51.808;7.478;2022-07-25T03:57:36;21.20;92.30
12853;DHT22;6495;51.808;7.478;2022-07-25T04:00:06;21.20;92.40
12853;DHT22;6495;51.808;7.478;2022-07-25T04:02:36;21.20;92.40
12853;DHT22;6495;51.808;7.478;2022-07-25T04:05:05;21.20;92.60
12853;DHT22;6495;51.808;7.478;2022-07-25T04:07:36;21.20;92.60
12853;DHT22;6495;51.808;7.478;2022-07-25T04:10:06;21.20;92.90
12853;DHT22;6495;51.808;7.478;2022-07-25T04:12:35;21.20;92.70
12853;DHT22;6495;51.808;7.478;2022-07-25T04:15:05;21.20;92.80
12853;DHT22;6495;51.808;7.478;2022-07-25T04:17:34;21.20;92.80
12853;DHT22;6495;51.808;7.478;2022-07-25T04:20:06;21.20;93.00
12853;DHT22;6495;51.808;7.478;2022-07-25T04:22:38;21.10;93.00
12853;DHT22;6495;51.808;7.478;2022-07-25T04:25:12;21.10;93.10
12853;DHT22;6495;51.808;7.478;2022-07-25T04:27:40;21.10;93.10
12853;DHT22;6495;51.808;7.478;2022-07-25T04:30:11;21.10;93.20
12853;DHT22;6495;51.808;7.478;2022-07-25T04:32:50;21.00;93.20
12853;DHT22;6495;51.808;7.478;2022-07-25T04:35:19;21.00;93.30
12853;DHT22;6495;51.808;7.478;2022-07-25T04:37:49;21.00;93.40
12853;DHT22;6495;51.808;7.478;2022-07-25T04:40:17;21.00;93.50
12853;DHT22;6495;51.808;7.478;2022-07-25T04:42:45;21.00;93.70
12853;DHT22;6495;51.808;7.478;2022-07-25T04:45:13;21.00;93.80
12853;DHT22;6495;51.808;7.478;2022-07-25T04:47:44;21.00;93.90
12853;DHT22;6495;51.808;7.478;2022-07-25T04:50:13;21.00;94.10
12853;DHT22;6495;51.808;7.478;2022-07-25T04:52:41;21.10;94.20
12853;DHT22;6495;51.808;7.478;2022-07-25T04:55:11;21.10;94.30
12853;DHT22;6495;51.808;7.478;2022-07-25T04:57:40;21.10;94.50
12853;DHT22;6495;51.808;7.478;2022-07-25T05:00:10;21.10;94.60
12853;DHT22;6495;51.808;7.478;2022-07-25T05:02:38;21.20;94.90
12853;DHT22;6495;51.808;7.478;2022-07-25T05:05:08;21.20;95.00
12853;DHT22;6495;51.808;7.478;2022-07-25T05:07:47;21.20;95.10
12853;DHT22;6495;51.808;7.478;2022-07-25T05:10:18;21.20;95.20
12853;DHT22;6495;51.808;7.478;2022-07-25T05:12:46;21.30;95.20
12853;DHT22;6495;51.808;7.478;2022-07-25T05:15:14;21.30;95.40
12853;DHT22;6495;51.808;7.478;2022-07-25T05:17:42;21.40;95.60
12853;DHT22;6495;51.808;7.478;2022-07-25T05:20:11;21.40;95.70
12853;DHT22;6495;51.808;7.478;2022-07-25T05:22:39;21.40;95.70
12853;DHT22;6495;51.808;7.478;2022-07-25T05:25:09;21.40;96.10
12853;DHT22;6495;51.808;7.478;2022-07-25T05:27:39;21.40;96.50
12853;DHT22;6495;51.808;7.478;2022-07-25T05:30:09;21.50;96.40
12853;DHT22;6495;51.808;7.478;2022-07-25T05:32:38;21.50;96.20
12853;DHT22;6495;51.808;7.478;2022-07-25T05:35:08;21.50;96.00
12853;DHT22;6495;51.808;7.478;2022-07-25T05:37:37;21.50;95.80
12853;DHT22;6495;51.808;7.478;2022-07-25T05:40:06;21.60;95.80
12853;DHT22;6495;51.808;7.478;2022-07-25T05:42:35;21.60;95.70
12853;DHT22;6495;51.808;7.478;2022-07-25T05:45:05;21.60;95.80
12853;DHT22;6495;51.808;7.478;2022-07-25T05:47:34;21.70;96.00
12853;DHT22;6495;51.808;7.478;2022-07-25T05:50:03;21.70;96.00
12853;DHT22;6495;51.808;7.478;2022-07-25T05:52:31;21.80;96.00
12853;DHT22;6495;51.808;7.478;2022-07-25T05:54:59;21.90;95.90
12853;DHT22;6495;51.808;7.478;2022-07-25T05:57:27;21.90;95.90
12853;DHT22;6495;51.808;7.478;2022-07-25T05:59:56;22.00;95.90
12853;DHT22;6495;51.808;7.478;2022-07-25T06:02:25;22.00;95.80
12853;DHT22;6495;51.808;7.478;2022-07-25T06:04:54;22.10;95.90
12853;DHT22;6495;51.808;7.478;2022-07-25T06:07:22;22.20;96.00
12853;DHT22;6495;51.808;7.478;2022-07-25T06:09:50;22.30;95.90
12853;DHT22;6495;51.808;7.478;2022-07-25T06:12:18;22.40;95.90
12853;DHT22;6495;51.808;7.478;2022-07-25T06:14:50;22.50;96.10
12853;DHT22;6495;51.808;7.478;2022-07-25T06:17:18;22.50;96.00
12853;DHT22;6495;51.808;7.478;2022-07-25T06:19:47;22.60;96.10
12853;DHT22;6495;51.808;7.478;2022-07-25T06:22:15;22.70;96.20
12853;DHT22;6495;51.808;7.478;2022-07-25T06:24:45;22.70;96.20
12853;DHT22;6495;51.808;7.478;2022-07-25T06:27:13;22.80;96.10
12853;DHT22;6495;51.808;7.478;2022-07-25T06:29:46;22.90;96.10
12853;DHT22;6495;51.808;7.478;2022-07-25T06:32:14;22.90;96.10
12853;DHT22;6495;51.808;7.478;2022-07-25T06:34:42;22.90;96.10
12853;DHT22;6495;51.808;7.478;2022-07-25T06:37:12;23.00;96.20
12853;DHT22;6495;51.808;7.478;2022-07-25T06:39:41;23.00;96.20
12853;DHT22;6495;51.808;7.478;2022-07-25T06:42:12;23.10;96.20
12853;DHT22;6495;51.808;7.478;2022-07-25T06:44:40;23.10;96.30
12853;DHT22;6495;51.808;7.478;2022-07-25T06:47:09;23.20;96.30
12853;DHT22;6495;51.808;7.478;2022-07-25T06:49:38;23.20;96.40
12853;DHT22;6495;51.808;7.478;2022-07-25T06:52:07;23.30;96.40
12853;DHT22;6495;51.808;7.478;2022-07-25T06:54:37;23.40;96.50
12853;DHT22;6495;51.808;7.478;2022-07-25T06:57:05;23.50;96.40
12853;DHT22;6495;51.808;7.478;2022-07-25T06:59:34;23.60;96.40
12853;DHT22;6495;51.808;7.478;2022-07-25T07:02:02;23.70;96.20
12853;DHT22;6495;51.808;7.478;2022-07-25T07:04:31;23.90;96.00
12853;DHT22;6495;51.808;7.478;2022-07-25T07:06:59;24.10;95.80
12853;DHT22;6495;51.808;7.478;2022-07-25T07:09:27;24.20;95.60
12853;DHT22;6495;51.808;7.478;2022-07-25T07:11:56;24.40;95.50
12853;DHT22;6495;51.808;7.478;2022-07-25T07:14:25;24.50;95.30
12853;DHT22;6495;51.808;7.478;2022-07-25T07:16:53;24.70;95.30
12853;DHT22;6495;51.808;7.478;2022-07-25T07:19:21;24.80;95.00
12853;DHT22;6495;51.808;7.478;2022-07-25T07:21:50;24.90;94.70
12853;DHT22;6495;51.808;7.478;2022-07-25T07:24:21;25.00;94.60
12853;DHT22;6495;51.808;7.478;2022-07-25T07:26:51;25.10;94.40
12853;DHT22;6495;51.808;7.478;2022-07-25T07:29:20;25.20;94.50
12853;DHT22;6495;51.808;7.478;2022-07-25T07:31:49;25.30;94.00
12853;DHT22;6495;51.808;7.478;2022-07-25T07:34:17;25.40;93.80
12853;DHT22;6495;51.808;7.478;2022-07-25T07:36:45;25.40;93.50
12853;DHT22;6495;51.808;7.478;2022-07-25T07:39:13;25.50;93.30
12853;DHT22;6495;51.808;7.478;2022-07-25T07:41:42;25.50;93.30
12853;DHT22;6495;51.808;7.478;2022-07-25T07:44:10;25.60;93.00
12853;DHT22;6495;51.808;7.478;2022-07-25T07:46:40;25.60;92.90
12853;DHT22;6495;51.808;7.478;2022-07-25T07:49:08;25.60;92.90
12853;DHT22;6495;51.808;7.478;2022-07-25T07:51:37;25.70;92.80
12853;DHT22;6495;51.808;7.478;2022-07-25T07:54:05;25.80;92.60
12853;DHT22;6495;51.808;7.478;2022-07-25T07:56:51;25.80;92.40
12853;DHT22;6495;51.808;7.478;2022-07-25T07:59:19;25.90;92.50
12853;DHT22;6495;51.808;7.478;2022-07-25T08:01:49;26.00;92.40
12853;DHT22;6495;51.808;7.478;2022-07-25T08:04:17;26.00;92.30
12853;DHT22;6495;51.808;7.478;2022-07-25T08:06:45;26.00;92.20
12853;DHT22;6495;51.808;7.478;2022-07-25T08:09:13;26.10;92.00
12853;DHT22;6495;51.808;7.478;2022-07-25T08:11:41;26.20;92.10
12853;DHT22;6495;51.808;7.478;2022-07-25T08:14:10;26.20;92.10
12853;DHT22;6495;51.808;7.478;2022-07-25T08:16:38;26.30;91.90
12853;DHT22;6495;51.808;7.478;2022-07-25T08:19:07;26.40;91.80
12853;DHT22;6495;51.808;7.478;2022-07-25T08:21:36;26.40;91.60
12853;DHT22;6495;51.808;7.478;2022-07-25T08:24:05;26.50;91.60
12853;DHT22;6495;51.808;7.478;2022-07-25T08:26:34;26.60;91.40
12853;DHT22;6495;51.808;7.478;2022-07-25T08:29:03;26.60;91.30
12853;DHT22;6495;51.808;7.478;2022-07-25T08:31:45;26.70;91.20
12853;DHT22;6495;51.808;7.478;2022-07-25T08:34:15;26.70;90.80
12853;DHT22;6495;51.808;7.478;2022-07-25T08:36:43;26.70;90.90
12853;DHT22;6495;51.808;7.478;2022-07-25T08:39:11;26.80;90.90
12853;DHT22;6495;51.808;7.478;2022-07-25T08:41:40;26.80;90.80
12853;DHT22;6495;51.808;7.478;2022-07-25T08:44:08;26.90;90.70
12853;DHT22;6495;51.808;7.478;2022-07-25T08:46:39;26.90;90.40
12853;DHT22;6495;51.808;7.478;2022-07-25T08:49:08;27.00;90.30
12853;DHT22;6495;51.808;7.478;2022-07-25T08:51:38;27.00;90.10
12853;DHT22;6495;51.808;7.478;2022-07-25T08:54:07;27.10;90.10
12853;DHT22;6495;51.808;7.478;2022-07-25T08:56:39;27.20;90.00
12853;DHT22;6495;51.808;7.478;2022-07-25T08:59:08;27.20;89.80
12853;DHT22;6495;51.808;7.478;2022-07-25T09:01:38;27.30;89.50
12853;DHT22;6495;51.808;7.478;2022-07-25T09:04:08;27.30;89.20
12853;DHT22;6495;51.808;7.478;2022-07-25T09:06:48;27.40;89.30
12853;DHT22;6495;51.808;7.478;2022-07-25T09:09:17;27.50;88.30
12853;DHT22;6495;51.808;7.478;2022-07-25T09:11:45;27.50;88.50
12853;DHT22;6495;51.808;7.478;2022-07-25T09:14:13;27.60;87.90
12853;DHT22;6495;51.808;7.478;2022-07-25T09:16:43;27.60;87.70
12853;DHT22;6495;51.808;7.478;2022-07-25T09:19:15;27.60;87.50
12853;DHT22;6495;51.808;7.478;2022-07-25T09:22:00;27.70;87.60
12853;DHT22;6495;51.808;7.478;2022-07-25T09:24:33;27.80;86.10
12853;DHT22;6495;51.808;7.478;2022-07-25T09:27:08;27.90;87.50
12853;DHT22;6495;51.808;7.478;2022-07-25T09:29:39;28.00;86.70
12853;DHT22;6495;51.808;7.478;2022-07-25T09:32:17;28.10;86.60
12853;DHT22;6495;51.808;7.478;2022-07-25T09:34:48;28.10;85.00
12853;DHT22;6495;51.808;7.478;2022-07-25T09:37:24;28.10;86.10
12853;DHT22;6495;51.808;7.478;2022-07-25T09:39:53;28.10;85.20
12853;DHT22;6495;51.808;7.478;2022-07-25T09:42:24;28.10;85.80
12853;DHT22;6495;51.808;7.478;2022-07-25T09:44:58;28.10;85.60
12853;DHT22;6495;51.808;7.478;2022-07-25T09:47:29;28.10;85.60
12853;DHT22;6495;51.808;7.478;2022-07-25T09:49:58;28.20;85.90
12853;DHT22;6495;51.808;7.478;2022-07-25T09:52:27;28.20;86.30
12853;DHT22;6495;51.808;7.478;2022-07-25T09:54:55;28.40;86.20
12853;DHT22;6495;51.808;7.478;2022-07-25T09:57:24;28.50;85.50
12853;DHT22;6495;51.808;7.478;2022-07-25T09:59:52;28.60;85.10
12853;DHT22;6495;51.808;7.478;2022-07-25T10:02:30;28.70;85.00
12853;DHT22;6495;51.808;7.478;2022-07-25T10:05:12;28.70;83.60
12853;DHT22;6495;51.808;7.478;2022-07-25T10:07:46;28.80;83.90
12853;DHT22;6495;51.808;7.478;2022-07-25T10:10:25;28.90;83.90
12853;DHT22;6495;51.808;7.478;2022-07-25T10:12:59;29.00;82.70
12853;DHT22;6495;51.808;7.478;2022-07-25T10:15:47;29.00;82.90
12853;DHT22;6495;51.808;7.478;2022-07-25T10:18:18;29.10;81.90
12853;DHT22;6495;51.808;7.478;2022-07-25T10:20:50;29.10;82.00
12853;DHT22;6495;51.808;7.478;2022-07-25T10:23:23;29.20;82.30
12853;DHT22;6495;51.808;7.478;2022-07-25T10:26:00;29.30;82.00
12853;DHT22;6495;51.808;7.478;2022-07-25T10:28:41;29.40;80.50
12853;DHT22;6495;51.808;7.478;2022-07-25T10:31:20;29.50;80.50
12853;DHT22;6495;51.808;7.478;2022-07-25T10:33:52;29.50;80.70
12853;DHT22;6495;51.808;7.478;2022-07-25T10:36:25;29.60;80.90
12853;DHT22;6495;51.808;7.478;2022-07-25T10:38:59;29.60;80.50
12853;DHT22;6495;51.808;7.478;2022-07-25T10:41:28;29.50;79.60
12853;DHT22;6495;51.808;7.478;2022-07-25T10:43:59;29.50;80.30
12853;DHT22;6495;51.808;7.478;2022-07-25T10:46:29;29.40;79.40
12853;DHT22;6495;51.808;7.478;2022-07-25T10:49:03;29.40;80.30
12853;DHT22;6495;51.808;7.478;2022-07-25T10:51:35;29.40;80.30
12853;DHT22;6495;51.808;7.478;2022-07-25T10:54:16;29.30;80.00
12853;DHT22;6495;51.808;7.478;2022-07-25T10:56:51;29.30;78.10
12853;DHT22;6495;51.808;7.478;2022-07-25T10:59:27;29.20;79.10
12853;DHT22;6495;51.808;7.478;2022-07-25T11:01:57;29.20;79.60
12853;DHT22;6495;51.808;7.478;2022-07-25T11:04:25;29.10;79.80
12853;DHT22;6495;51.808;7.478;2022-07-25T11:06:54;29.00;80.10
12853;DHT22;6495;51.808;7.478;2022-07-25T11:09:26;29.00;80.30
12853;DHT22;6495;51.808;7.478;2022-07-25T11:11:57;29.00;80.30
12853;DHT22;6495;51.808;7.478;2022-07-25T11:14:29;29.00;80.60
12853;DHT22;6495;51.808;7.478;2022-07-25T11:17:13;29.00;80.40
12853;DHT22;6495;51.808;7.478;2022-07-25T11:19:52;29.00;80.50
12853;DHT22;6495;51.808;7.478;2022-07-25T11:22:22;29.10;80.70
12853;DHT22;6495;51.808;7.478;2022-07-25T11:24:52;29.10;80.80
12853;DHT22;6495;51.808;7.478;2022-07-25T11:27:23;29.20;81.80
12853;DHT22;6495;51.808;7.478;2022-07-25T11:30:05;29.30;81.00
12853;DHT22;6495;51.808;7.478;2022-07-25T11:32:38;29.40;80.50
12853;DHT22;6495;51.808;7.478;2022-07-25T11:35:07;29.40;80.50
12853;DHT22;6495;51.808;7.478;2022-07-25T11:37:38;29.50;80.20
12853;DHT22;6495;51.808;7.478;2022-07-25T11:40:09;29.60;79.70
12853;DHT22;6495;51.808;7.478;2022-07-25T11:42:43;29.60;79.10
12853;DHT22;6495;51.808;7.478;2022-07-25T11:45:17;29.70;78.80
12853;DHT22;6495;51.808;7.478;2022-07-25T11:47:48;29.70;78.60
12853;DHT22;6495;51.808;7.478;2022-07-25T11:50:28;29.80;78.50
12853;DHT22;6495;51.808;7.478;2022-07-25T11:52:58;29.80;76.50
12853;DHT22;6495;51.808;7.478;2022-07-25T11:55:30;29.80;77.50
12853;DHT22;6495;51.808;7.478;2022-07-25T11:58:04;29.80;77.60
12853;DHT22;6495;51.808;7.478;2022-07-25T12:00:34;29.90;77.90
12853;DHT22;6495;51.808;7.478;2022-07-25T12:03:08;29.90;77.80
12853;DHT22;6495;51.808;7.478;2022-07-25T12:05:45;29.90;77.70
12853;DHT22;6495;51.808;7.478;2022-07-25T12:08:15;30.00;77.60
12853;DHT22;6495;51.808;7.478;2022-07-25T12:10:47;30.00;77.60
12853;DHT22;6495;51.808;7.478;2022-07-25T12:13:21;30.00;76.70
12853;DHT22;6495;51.808;7.478;2022-07-25T12:15:51;30.00;77.40
12853;DHT22;6495;51.808;7.478;2022-07-25T12:18:19;30.00;76.80
12853;DHT22;6495;51.808;7.478;2022-07-25T12:20:48;30.00;76.50
12853;DHT22;6495;51.808;7.478;2022-07-25T12:23:16;30.00;77.00
12853;DHT22;6495;51.808;7.478;2022-07-25T12:25:46;30.00;76.50
12853;DHT22;6495;51.808;7.478;2022-07-25T12:28:15;30.00;76.20
12853;DHT22;6495;51.808;7.478;2022-07-25T12:30:44;30.00;75.90
12853;DHT22;6495;51.808;7.478;2022-07-25T12:33:22;30.00;75.20
12853;DHT22;6495;51.808;7.478;2022-07-25T12:35:50;30.00;75.20
12853;DHT22;6495;51.808;7.478;2022-07-25T12:38:18;30.10;75.10
12853;DHT22;6495;51.808;7.478;2022-07-25T12:40:48;30.10;74.60
12853;DHT22;6495;51.808;7.478;2022-07-25T12:43:16;30.00;74.20
12853;DHT22;6495;51.808;7.478;2022-07-25T12:45:44;30.00;73.80
12853;DHT22;6495;51.808;7.478;2022-07-25T12:48:13;30.00;74.00
12853;DHT22;6495;51.808;7.478;2022-07-25T12:50:42;29.90;73.70
12853;DHT22;6495;51.808;7.478;2022-07-25T12:53:11;29.90;73.70
12853;DHT22;6495;51.808;7.478;2022-07-25T12:55:40;29.90;73.70
12853;DHT22;6495;51.808;7.478;2022-07-25T12:58:09;29.80;73.60
12853;DHT22;6495;51.808;7.478;2022-07-25T13:00:40;29.80;73.60
12853;DHT22;6495;51.808;7.478;2022-07-25T13:03:09;29.70;73.60
12853;DHT22;6495;51.808;7.478;2022-07-25T13:05:38;29.70;73.40
12853;DHT22;6495;51.808;7.478;2022-07-25T13:08:07;29.70;73.50
12853;DHT22;6495;51.808;7.478;2022-07-25T13:10:35;29.70;73.30
12853;DHT22;6495;51.808;7.478;2022-07-25T13:13:04;29.60;73.10
12853;DHT22;6495;51.808;7.478;2022-07-25T13:15:34;29.60;73.30
12853;DHT22;6495;51.808;7.478;2022-07-25T13:18:03;29.50;73.70
12853;DHT22;6495;51.808;7.478;2022-07-25T13:20:31;29.60;74.20
12853;DHT22;6495;51.808;7.478;2022-07-25T13:23:01;29.60;74.10
12853;DHT22;6495;51.808;7.478;2022-07-25T13:25:31;29.60;73.90
12853;DHT22;6495;51.808;7.478;2022-07-25T13:28:01;29.60;74.70
12853;DHT22;6495;51.808;7.478;2022-07-25T13:30:38;29.60;74.00
12853;DHT22;6495;51.808;7.478;2022-07-25T13:33:06;29.60;74.60
12853;DHT22;6495;51.808;7.478;2022-07-25T13:35:35;29.60;74.90
12853;DHT22;6495;51.808;7.478;2022-07-25T13:38:08;29.60;75.10
12853;DHT22;6495;51.808;7.478;2022-07-25T13:40:37;29.60;75.30
12853;DHT22;6495;51.808;7.478;2022-07-25T13:43:07;29.60;75.30
12853;DHT22;6495;51.808;7.478;2022-07-25T13:45:38;29.60;75.50
12853;DHT22;6495;51.808;7.478;2022-07-25T13:48:07;29.60;75.70
12853;DHT22;6495;51.808;7.478;2022-07-25T13:50:56;29.60;75.70
12853;DHT22;6495;51.808;7.478;2022-07-25T13:53:25;29.60;75.60
12853;DHT22;6495;51.808;7.478;2022-07-25T13:55:57;29.60;75.30
12853;DHT22;6495;51.808;7.478;2022-07-25T13:58:26;29.60;76.00
12853;DHT22;6495;51.808;7.478;2022-07-25T14:00:56;29.60;75.30
12853;DHT22;6495;51.808;7.478;2022-07-25T14:03:24;29.60;75.40
12853;DHT22;6495;51.808;7.478;2022-07-25T14:05:52;29.70;75.60
12853;DHT22;6495;51.808;7.478;2022-07-25T14:08:21;29.70;75.60
12853;DHT22;6495;51.808;7.478;2022-07-25T14:10:51;29.70;75.70
12853;DHT22;6495;51.808;7.478;2022-07-25T14:13:20;29.70;75.50
12853;DHT22;6495;51.808;7.478;2022-07-25T14:15:48;29.70;75.60
12853;DHT22;6495;51.808;7.478;2022-07-25T14:18:18;29.60;75.80
12853;DHT22;6495;51.808;7.478;2022-07-25T14:20:46;29.60;75.90
12853;DHT22;6495;51.808;7.478;2022-07-25T14:23:15;29.50;76.20
12853;DHT22;6495;51.808;7.478;2022-07-25T14:25:44;29.50;76.40
12853;DHT22;6495;51.808;7.478;2022-07-25T14:28:12;29.50;76.80
12853;DHT22;6495;51.808;7.478;2022-07-25T14:30:41;29.50;76.90
12853;DHT22;6495;51.808;7.478;2022-07-25T14:33:09;29.40;76.70
12853;DHT22;6495;51.808;7.478;2022-07-25T14:35:38;29.40;76.20
12853;DHT22;6495;51.808;7.478;2022-07-25T14:38:07;29.30;76.10
12853;DHT22;6495;51.808;7.478;2022-07-25T14:40:35;29.30;76.00
12853;DHT22;6495;51.808;7.478;2022-07-25T14:43:08;29.20;75.70
12853;DHT22;6495;51.808;7.478;2022-07-25T14:45:57;29.10;74.90
12853;DHT22;6495;51.808;7.478;2022-07-25T14:48:42;29.00;74.40
12853;DHT22;6495;51.808;7.478;2022-07-25T14:51:14;28.90;75.50
12853;DHT22;6495;51.808;7.478;2022-07-25T14:53:44;28.80;75.10
12853;DHT22;6495;51.808;7.478;2022-07-25T14:56:18;28.70;75.30
12853;DHT22;6495;51.808;7.478;2022-07-25T14:58:47;28.60;75.60
12853;DHT22;6495;51.808;7.478;2022-07-25T15:01:15;28.60;76.00
12853;DHT22;6495;51.808;7.478;2022-07-25T15:03:44;28.50;76.40
12853;DHT22;6495;51.808;7.478;2022-07-25T15:06:17;28.50;77.10
12853;DHT22;6495;51.808;7.478;2022-07-25T15:09:15;28.50;77.10
12853;DHT22;6495;51.808;7.478;2022-07-25T15:13:04;28.50;77.40
12853;DHT22;6495;51.808;7.478;2022-07-25T15:15:56;28.50;77.20
12853;DHT22;6495;51.808;7.478;2022-07-25T15:21:04;28.40;77.90
12853;DHT22;6495;51.808;7.478;2022-07-25T15:23:37;28.30;76.80
12853;DHT22;6495;51.808;7.478;2022-07-25T15:26:16;28.20;76.90
12853;DHT22;6495;51.808;7.478;2022-07-25T15:28:45;28.10;77.10
12853;DHT22;6495;51.808;7.478;2022-07-25T15:31:13;28.00;77.00
12853;DHT22;6495;51.808;7.478;2022-07-25T15:33:42;27.90;77.20
12853;DHT22;6495;51.808;7.478;2022-07-25T15:43:19;27.70;77.50
12853;DHT22;6495;51.808;7.478;2022-07-25T15:45:48;27.60;77.20
12853;DHT22;6495;51.808;7.478;2022-07-25T15:48:17;27.50;77.10
12853;DHT22;6495;51.808;7.478;2022-07-25T15:50:48;27.40;77.30
12853;DHT22;6495;51.808;7.478;2022-07-25T15:53:18;27.30;77.80
12853;DHT22;6495;51.808;7.478;2022-07-25T15:55:46;27.30;78.00
12853;DHT22;6495;51.808;7.478;2022-07-25T15:58:14;27.20;78.30
12853;DHT22;6495;51.808;7.478;2022-07-25T16:00:44;27.10;78.40
12853;DHT22;6495;51.808;7.478;2022-07-25T16:03:12;27.00;78.50
12853;DHT22;6495;51.808;7.478;2022-07-25T16:05:42;26.90;78.50
12853;DHT22;6495;51.808;7.478;2022-07-25T16:08:10;26.90;78.90
12853;DHT22;6495;51.808;7.478;2022-07-25T16:10:38;26.80;79.10
12853;DHT22;6495;51.808;7.478;2022-07-25T16:13:07;26.70;79.10
12853;DHT22;6495;51.808;7.478;2022-07-25T16:15:35;26.70;79.20